createdAt,value
2023-03-06T00:00:54.494Z,15.83
2023-03-06T00:03:22.154Z,11.83
2023-03-06T00:05:49.380Z,16.03
2023-03-06T00:08:16.346Z,14.97
2023-03-06T00:10:43.190Z,12.33
2023-03-06T00:13:14.275Z,13.37
2023-03-06T00:15:41.724Z,11.33
2023-03-06T00:18:09.300Z,14.60
2023-03-06T00:20:38.538Z,16.77
2023-03-06T00:23:05.330Z,12.90
2023-03-06T00:25:32.070Z,13.13
2023-03-06T00:27:58.780Z,13.20
2023-03-06T00:30:25.634Z,19.63
2023-03-06T00:32:53.570Z,13.20
2023-03-06T00:35:20.845Z,17.77
2023-03-06T00:37:48.425Z,16.10
2023-03-06T00:40:19.594Z,13.57
2023-03-06T00:42:47.380Z,16.33
2023-03-06T00:45:14.797Z,14.77
2023-03-06T00:47:41.778Z,15.67
2023-03-06T00:50:09.959Z,14.73
2023-03-06T00:52:37.020Z,12.53
2023-03-06T00:55:05.620Z,14.03
2023-03-06T00:57:32.360Z,17.40
2023-03-06T00:59:59.228Z,12.63
2023-03-06T01:02:26.116Z,13.77
2023-03-06T01:04:52.837Z,13.97
2023-03-06T01:07:19.624Z,17.67
2023-03-06T01:09:46.325Z,14.03
2023-03-06T01:12:13.077Z,17.83
2023-03-06T01:14:39.821Z,15.27
2023-03-06T01:17:07.552Z,12.63
2023-03-06T01:19:34.318Z,14.07
2023-03-06T01:22:01.038Z,16.20
2023-03-06T01:24:28.471Z,15.93
2023-03-06T01:26:55.226Z,16.60
2023-03-06T01:29:21.940Z,13.63
2023-03-06T01:31:48.817Z,15.07
2023-03-06T01:34:15.656Z,15.33
2023-03-06T01:36:42.364Z,13.10
2023-03-06T01:39:09.150Z,14.07
2023-03-06T01:41:36.389Z,11.83
2023-03-06T01:44:03.336Z,12.57
2023-03-06T01:46:30.364Z,16.33
2023-03-06T01:49:25.633Z,16.20
2023-03-06T01:51:57.530Z,16.83
2023-03-06T01:54:28.276Z,15.43
2023-03-06T01:57:33.340Z,15.60
2023-03-06T02:00:09.272Z,13.33
2023-03-06T02:02:37.585Z,14.43
2023-03-06T02:05:07.395Z,13.97
2023-03-06T02:07:36.078Z,16.13
2023-03-06T02:10:03.879Z,14.27
2023-03-06T02:12:30.965Z,15.73
2023-03-06T02:14:58.599Z,15.03
2023-03-06T02:17:27.374Z,14.33
2023-03-06T02:20:13.023Z,17.47
2023-03-06T02:23:09.747Z,13.20
2023-03-06T02:25:48.216Z,14.40
2023-03-06T02:28:20.448Z,15.47
2023-03-06T02:30:51.041Z,17.77
2023-03-06T02:33:22.434Z,14.67
2023-03-06T02:36:06.572Z,14.57
2023-03-06T02:38:48.583Z,15.17
2023-03-06T02:41:15.851Z,17.73
2023-03-06T02:43:47.061Z,22.73
2023-03-06T02:46:14.027Z,18.67
2023-03-06T02:48:40.760Z,16.67
2023-03-06T02:51:07.512Z,14.30
2023-03-06T02:53:34.234Z,14.23
2023-03-06T02:56:01.452Z,15.97
2023-03-06T02:58:28.284Z,17.53
2023-03-06T03:00:55.186Z,15.73
2023-03-06T03:03:21.941Z,17.23
2023-03-06T03:05:48.669Z,16.90
2023-03-06T03:08:15.889Z,14.87
2023-03-06T03:10:42.778Z,15.73
2023-03-06T03:13:09.526Z,14.80
2023-03-06T03:15:36.320Z,16.67
2023-03-06T03:18:03.230Z,16.97
2023-03-06T03:20:29.965Z,20.07
2023-03-06T03:22:56.754Z,16.07
2023-03-06T03:25:26.000Z,14.00
2023-03-06T03:27:52.882Z,17.67
2023-03-06T03:30:20.140Z,12.87
2023-03-06T03:32:47.012Z,20.33
2023-03-06T03:35:13.997Z,18.47
2023-03-06T03:37:40.783Z,17.53
2023-03-06T03:40:10.106Z,14.30
2023-03-06T03:42:36.894Z,14.87
2023-03-06T03:45:03.961Z,13.10
2023-03-06T03:47:30.657Z,16.77
2023-03-06T03:49:57.391Z,19.57
2023-03-06T03:52:24.321Z,14.43
2023-03-06T03:54:51.025Z,14.20
2023-03-06T03:57:17.763Z,11.77
2023-03-06T03:59:44.496Z,13.33
2023-03-06T04:02:11.520Z,16.00
2023-03-06T04:04:38.366Z,18.40
2023-03-06T04:07:05.173Z,17.13
2023-03-06T04:09:32.017Z,17.70
2023-03-06T04:11:58.816Z,19.20
2023-03-06T04:14:25.735Z,16.43
2023-03-06T04:16:52.568Z,24.10
2023-03-06T04:19:19.366Z,16.27
2023-03-06T04:21:46.164Z,18.27
2023-03-06T04:24:13.108Z,14.57
2023-03-06T04:26:39.876Z,19.40
2023-03-06T04:29:06.776Z,16.20
2023-03-06T04:31:33.742Z,16.80
2023-03-06T04:34:00.584Z,19.17
2023-03-06T04:36:31.724Z,20.83
2023-03-06T04:38:59.796Z,16.33
2023-03-06T04:41:26.899Z,16.57
2023-03-06T04:43:54.154Z,16.80
2023-03-06T04:46:20.914Z,15.93
2023-03-06T04:48:47.716Z,15.87
2023-03-06T04:51:15.327Z,17.07
2023-03-06T04:53:42.111Z,20.20
2023-03-06T04:56:09.027Z,17.00
2023-03-06T04:58:36.018Z,16.83
2023-03-06T05:01:03.945Z,16.47
2023-03-06T05:03:30.992Z,17.33
2023-03-06T05:05:57.857Z,17.40
2023-03-06T05:08:24.696Z,15.80
2023-03-06T05:11:02.298Z,17.93
2023-03-06T05:13:29.527Z,20.87
2023-03-06T05:16:05.591Z,17.77
2023-03-06T05:18:33.857Z,18.10
2023-03-06T05:21:01.609Z,16.93
2023-03-06T05:23:34.384Z,19.33
2023-03-06T05:26:01.120Z,17.27
2023-03-06T05:28:28.578Z,19.57
2023-03-06T05:30:55.304Z,23.73
2023-03-06T05:33:22.060Z,17.00
2023-03-06T05:35:50.014Z,17.97
2023-03-06T05:38:18.701Z,14.63
2023-03-06T05:40:46.246Z,17.87
2023-03-06T05:43:13.053Z,14.97
2023-03-06T05:45:40.619Z,16.60
2023-03-06T05:48:08.286Z,18.83
2023-03-06T05:50:35.105Z,16.37
2023-03-06T05:53:02.698Z,19.70
2023-03-06T05:55:30.035Z,20.83
2023-03-06T05:57:56.754Z,21.33
2023-03-06T06:00:24.039Z,20.03
2023-03-06T06:02:50.958Z,19.33
2023-03-06T06:05:17.794Z,22.70
2023-03-06T06:07:44.575Z,18.07
2023-03-06T06:10:12.154Z,19.00
2023-03-06T06:12:41.493Z,22.77
2023-03-06T06:15:08.677Z,17.83
2023-03-06T06:17:35.615Z,15.47
2023-03-06T06:20:03.570Z,17.53
2023-03-06T06:22:30.428Z,18.33
2023-03-06T06:24:57.345Z,18.43
2023-03-06T06:27:24.055Z,19.40
2023-03-06T06:29:52.362Z,24.10
2023-03-06T06:32:19.395Z,17.77
2023-03-06T06:34:46.120Z,17.53
2023-03-06T06:37:12.973Z,16.37
2023-03-06T06:39:40.566Z,19.97
2023-03-06T06:42:28.559Z,17.83
2023-03-06T06:44:55.187Z,21.87
2023-03-06T06:47:24.671Z,21.10
2023-03-06T06:49:53.779Z,15.10
2023-03-06T06:52:21.154Z,17.13
2023-03-06T06:54:48.217Z,18.07
2023-03-06T06:57:16.762Z,17.20
2023-03-06T06:59:43.487Z,16.90
2023-03-06T07:02:15.801Z,20.37
2023-03-06T07:05:00.294Z,17.63
2023-03-06T07:07:30.464Z,16.50
2023-03-06T07:09:57.265Z,18.87
2023-03-06T07:12:24.089Z,18.43
2023-03-06T07:14:50.812Z,15.40
2023-03-06T07:17:17.566Z,15.83
2023-03-06T07:19:44.283Z,17.30
2023-03-06T07:22:11.093Z,17.17
2023-03-06T07:24:37.810Z,19.40
2023-03-06T07:27:04.566Z,18.63
2023-03-06T07:29:32.884Z,16.30
2023-03-06T07:32:00.339Z,20.97
2023-03-06T07:34:27.100Z,21.27
2023-03-06T07:36:53.917Z,14.77
2023-03-06T07:39:20.787Z,17.63
2023-03-06T07:41:47.565Z,24.20
2023-03-06T07:44:14.291Z,26.40
2023-03-06T07:46:41.224Z,21.23
2023-03-06T07:49:08.083Z,23.63
2023-03-06T07:51:34.829Z,22.83
2023-03-06T07:54:01.570Z,26.27
2023-03-06T07:56:28.319Z,29.40
2023-03-06T07:58:56.153Z,18.97
2023-03-06T08:01:24.121Z,23.00
2023-03-06T08:03:51.575Z,21.50
2023-03-06T08:06:25.144Z,20.83
2023-03-06T08:08:54.845Z,21.33
2023-03-06T08:11:25.780Z,22.50
2023-03-06T08:13:53.636Z,22.97
2023-03-06T08:16:23.025Z,25.80
2023-03-06T08:18:50.676Z,19.43
2023-03-06T08:21:22.152Z,19.93
2023-03-06T08:23:49.020Z,23.17
2023-03-06T08:26:22.883Z,20.87
2023-03-06T08:28:52.578Z,18.47
2023-03-06T08:31:29.595Z,20.70
2023-03-06T08:33:59.991Z,17.23
2023-03-06T08:36:26.951Z,21.07
2023-03-06T08:38:53.771Z,21.75
2023-03-06T08:41:21.753Z,18.70
2023-03-06T08:43:50.066Z,18.03
2023-03-06T08:46:18.793Z,15.97
2023-03-06T08:48:49.569Z,18.80
2023-03-06T08:51:18.010Z,21.77
2023-03-06T08:53:45.594Z,19.00
2023-03-06T08:56:19.293Z,23.57
2023-03-06T08:58:46.684Z,22.00
2023-03-06T09:01:22.439Z,17.10
2023-03-06T09:03:50.143Z,20.73
2023-03-06T09:06:17.795Z,20.47
2023-03-06T09:08:44.777Z,21.53
2023-03-06T09:11:14.992Z,19.60
2023-03-06T09:13:43.498Z,16.67
2023-03-06T09:16:11.927Z,19.67
2023-03-06T09:18:39.296Z,18.07
2023-03-06T09:21:07.788Z,20.40
2023-03-06T09:23:37.120Z,19.63
2023-03-06T09:26:04.773Z,15.77
2023-03-06T09:28:32.130Z,18.10
2023-03-06T09:30:59.006Z,17.63
2023-03-06T09:33:26.797Z,16.50
2023-03-06T09:35:56.620Z,17.03
2023-03-06T09:38:27.148Z,17.30
2023-03-06T09:41:20.062Z,17.00
2023-03-06T09:43:51.908Z,18.30
2023-03-06T09:47:00.445Z,16.77
2023-03-06T09:50:04.625Z,19.07
2023-03-06T09:53:05.017Z,16.10
2023-03-06T09:55:37.248Z,16.03
2023-03-06T09:58:22.761Z,15.97
2023-03-06T10:01:17.253Z,13.67
2023-03-06T10:04:40.636Z,12.60
2023-03-06T10:07:44.418Z,18.43
2023-03-06T10:10:22.321Z,16.30
2023-03-06T10:13:19.131Z,21.57
2023-03-06T10:15:47.982Z,18.57
2023-03-06T10:18:14.811Z,16.97
2023-03-06T10:21:07.394Z,16.53
2023-03-06T10:24:45.125Z,14.27
2023-03-06T10:27:51.706Z,18.93
2023-03-06T10:31:07.125Z,12.27
2023-03-06T10:34:11.274Z,19.27
2023-03-06T10:36:38.002Z,13.43
2023-03-06T10:39:15.606Z,11.60
2023-03-06T10:41:43.290Z,13.67
2023-03-06T10:44:13.515Z,14.90
2023-03-06T10:46:46.846Z,12.60
2023-03-06T10:49:42.930Z,16.03
2023-03-06T10:52:09.593Z,14.73
2023-03-06T10:54:40.766Z,15.30
2023-03-06T10:57:28.645Z,10.80
2023-03-06T11:00:05.444Z,16.77
2023-03-06T11:02:41.002Z,14.27
2023-03-06T11:05:20.461Z,14.63
2023-03-06T11:07:59.644Z,14.50
2023-03-06T11:10:28.764Z,11.80
2023-03-06T11:13:24.738Z,10.40
2023-03-06T11:16:30.691Z,14.40
2023-03-06T11:19:05.493Z,12.60
2023-03-06T11:21:36.009Z,13.33
2023-03-06T11:24:16.110Z,13.60
2023-03-06T11:27:19.090Z,11.07
2023-03-06T11:29:51.363Z,10.83
2023-03-06T11:32:33.197Z,12.47
2023-03-06T11:35:10.150Z,10.43
2023-03-06T11:37:51.110Z,9.33
2023-03-06T11:40:30.571Z,11.07
2023-03-06T11:43:20.813Z,11.77
2023-03-06T11:45:58.004Z,12.40
2023-03-06T11:48:54.074Z,12.13
2023-03-06T11:51:32.566Z,11.10
2023-03-06T11:54:00.597Z,9.43
2023-03-06T11:56:45.470Z,10.67
2023-03-06T11:59:44.395Z,10.47
2023-03-06T12:03:02.352Z,8.70
2023-03-06T12:05:53.564Z,9.30
2023-03-06T12:08:56.433Z,12.07
2023-03-06T12:11:35.354Z,10.57
2023-03-06T12:14:28.382Z,9.60
2023-03-06T12:17:17.660Z,13.47
2023-03-06T12:20:40.332Z,11.70
2023-03-06T12:23:43.482Z,8.97
2023-03-06T12:26:45.775Z,10.17
2023-03-06T12:29:46.880Z,11.40
2023-03-06T12:32:49.169Z,9.97
2023-03-06T12:35:32.325Z,12.23
2023-03-06T12:38:20.088Z,9.33
2023-03-06T12:41:30.489Z,9.90
2023-03-06T12:44:08.084Z,9.57
2023-03-06T12:46:46.556Z,12.80
2023-03-06T12:49:32.463Z,11.83
2023-03-06T12:52:01.970Z,8.73
2023-03-06T12:54:36.679Z,12.47
2023-03-06T12:57:07.200Z,8.23
2023-03-06T12:59:49.371Z,13.67
2023-03-06T13:03:06.320Z,9.50
2023-03-06T13:06:04.096Z,12.83
2023-03-06T13:08:58.630Z,12.30
2023-03-06T13:11:52.792Z,9.23
2023-03-06T13:14:28.175Z,8.37
2023-03-06T13:16:55.034Z,10.70
2023-03-06T13:19:25.651Z,9.87
2023-03-06T13:21:55.333Z,10.77
2023-03-06T13:24:25.160Z,11.03
2023-03-06T13:26:58.115Z,10.17
2023-03-06T13:29:36.952Z,11.80
2023-03-06T13:32:03.665Z,8.83
2023-03-06T13:34:42.370Z,9.63
2023-03-06T13:37:22.870Z,9.60
2023-03-06T13:39:55.452Z,9.13
2023-03-06T13:42:36.765Z,8.47
2023-03-06T13:45:37.999Z,7.07
2023-03-06T13:48:30.402Z,10.27
2023-03-06T13:50:55.387Z,9.57
2023-03-06T13:54:14.235Z,10.07
2023-03-06T13:57:08.493Z,7.37
2023-03-06T14:00:09.352Z,10.13
2023-03-06T14:03:03.890Z,9.77
2023-03-06T14:05:43.828Z,7.50
2023-03-06T14:08:33.610Z,7.23
2023-03-06T14:11:21.502Z,8.73
2023-03-06T14:13:55.698Z,7.73
2023-03-06T14:16:29.084Z,7.40
2023-03-06T14:18:59.821Z,7.77
2023-03-06T14:21:44.588Z,10.60
2023-03-06T14:24:18.158Z,7.97
2023-03-06T14:26:51.099Z,7.43
2023-03-06T14:29:25.012Z,7.77
2023-03-06T14:31:58.668Z,9.17
2023-03-06T14:34:31.903Z,9.57
2023-03-06T14:37:03.462Z,7.13
2023-03-06T14:39:42.787Z,8.67
2023-03-06T14:42:27.610Z,7.83
2023-03-06T14:45:17.946Z,13.47
2023-03-06T14:47:52.328Z,9.40
2023-03-06T14:50:23.401Z,12.43
2023-03-06T14:52:58.712Z,9.07
2023-03-06T14:55:28.209Z,8.90
2023-03-06T14:58:16.416Z,13.03
2023-03-06T15:00:49.333Z,13.03
2023-03-06T15:03:38.617Z,10.93
2023-03-06T15:06:07.113Z,9.27
2023-03-06T15:08:39.266Z,10.60
2023-03-06T15:11:07.458Z,12.50
2023-03-06T15:13:35.024Z,9.17
2023-03-06T15:16:30.045Z,11.60
2023-03-06T15:19:04.620Z,12.60
2023-03-06T15:21:38.591Z,9.90
2023-03-06T15:24:36.356Z,10.57
2023-03-06T15:27:17.752Z,14.83
2023-03-06T15:29:44.637Z,11.43
2023-03-06T15:32:30.242Z,11.17
2023-03-06T15:35:29.035Z,10.43
2023-03-06T15:37:57.368Z,11.20
2023-03-06T15:40:29.389Z,10.07
2023-03-06T15:42:58.863Z,11.20
2023-03-06T15:45:28.016Z,18.13
2023-03-06T15:47:55.903Z,14.13
2023-03-06T15:50:28.653Z,10.20
2023-03-06T15:52:55.490Z,11.07
2023-03-06T15:55:28.180Z,9.50
2023-03-06T15:58:00.570Z,9.97
2023-03-06T16:00:32.316Z,11.00
2023-03-06T16:02:59.846Z,11.70
2023-03-06T16:05:28.649Z,8.37
2023-03-06T16:07:56.003Z,10.60
2023-03-06T16:10:30.144Z,10.20
2023-03-06T16:13:02.507Z,11.90
2023-03-06T16:15:32.999Z,11.93
2023-03-06T16:18:00.256Z,11.93
2023-03-06T16:20:29.459Z,13.17
2023-03-06T16:23:00.430Z,12.03
2023-03-06T16:25:28.406Z,11.73
2023-03-06T16:27:59.454Z,13.20
2023-03-06T16:30:33.044Z,13.90
2023-03-06T16:33:00.256Z,14.60
2023-03-06T16:35:28.026Z,14.07
2023-03-06T16:37:54.867Z,14.57
2023-03-06T16:40:37.246Z,14.63
2023-03-06T16:43:09.368Z,12.83
2023-03-06T16:45:41.093Z,13.13
2023-03-06T16:48:15.808Z,12.50
2023-03-06T16:50:43.008Z,17.33
2023-03-06T16:53:09.789Z,15.77
2023-03-06T16:55:36.546Z,13.77
2023-03-06T16:58:03.400Z,15.77
2023-03-06T17:00:32.967Z,19.80
2023-03-06T17:03:01.642Z,15.93
2023-03-06T17:05:29.029Z,16.07
2023-03-06T17:07:56.465Z,18.83
2023-03-06T17:10:26.167Z,17.87
2023-03-06T17:12:53.996Z,13.70
2023-03-06T17:15:21.286Z,13.30
2023-03-06T17:17:48.892Z,16.27
2023-03-06T17:20:15.958Z,19.03
2023-03-06T17:22:42.901Z,20.07
2023-03-06T17:25:10.048Z,13.93
2023-03-06T17:27:37.628Z,16.03
2023-03-06T17:30:06.611Z,16.30
2023-03-06T17:32:33.537Z,14.03
2023-03-06T17:35:00.616Z,20.87
2023-03-06T17:37:27.518Z,13.60
2023-03-06T17:39:54.492Z,17.27
2023-03-06T17:42:21.203Z,17.70
2023-03-06T17:44:48.017Z,16.63
2023-03-06T17:47:14.790Z,16.40
2023-03-06T17:49:41.575Z,17.60
2023-03-06T17:52:08.430Z,17.77
2023-03-06T17:54:35.779Z,14.13
2023-03-06T17:57:03.566Z,16.07
2023-03-06T17:59:34.076Z,16.57
2023-03-06T18:02:01.622Z,16.47
2023-03-06T18:04:29.076Z,20.77
2023-03-06T18:06:57.019Z,14.30
2023-03-06T18:09:24.164Z,13.57
2023-03-06T18:11:50.958Z,16.00
2023-03-06T18:14:17.719Z,15.77
2023-03-06T18:16:44.781Z,18.57
2023-03-06T18:19:11.879Z,16.57
2023-03-06T18:21:39.902Z,15.60
2023-03-06T18:24:07.373Z,15.53
2023-03-06T18:26:34.208Z,16.40
2023-03-06T18:29:04.290Z,14.73
2023-03-06T18:31:35.104Z,14.33
2023-03-06T18:34:14.744Z,12.93
2023-03-06T18:36:43.399Z,16.63
2023-03-06T18:39:12.942Z,14.90
2023-03-06T18:41:40.210Z,16.90
2023-03-06T18:44:07.587Z,15.00
2023-03-06T18:46:38.107Z,16.67
2023-03-06T18:49:06.017Z,15.83
2023-03-06T18:51:33.750Z,16.97
2023-03-06T18:54:02.777Z,18.13
2023-03-06T18:56:30.091Z,17.53
2023-03-06T18:59:01.414Z,14.90
2023-03-06T19:01:30.635Z,16.20
2023-03-06T19:04:05.058Z,16.67
2023-03-06T19:06:32.134Z,17.47
2023-03-06T19:08:59.315Z,20.20
2023-03-06T19:11:27.620Z,19.40
2023-03-06T19:13:54.678Z,15.50
2023-03-06T19:16:26.485Z,17.77
2023-03-06T19:18:55.628Z,15.70
2023-03-06T19:21:25.421Z,15.67
2023-03-06T19:23:52.475Z,13.83
2023-03-06T19:26:19.651Z,16.47
2023-03-06T19:28:48.052Z,18.77
2023-03-06T19:31:25.568Z,18.07
2023-03-06T19:33:54.327Z,14.40
2023-03-06T19:36:27.515Z,17.97
2023-03-06T19:38:57.274Z,14.70
2023-03-06T19:41:25.163Z,17.00
2023-03-06T19:43:55.957Z,19.70
2023-03-06T19:46:24.284Z,19.73
2023-03-06T19:48:57.275Z,16.17
2023-03-06T19:51:26.099Z,14.77
2023-03-06T19:53:53.537Z,19.63
2023-03-06T19:56:25.933Z,15.53
2023-03-06T19:58:53.477Z,14.60
2023-03-06T20:01:23.373Z,20.70
2023-03-06T20:03:53.192Z,20.30
2023-03-06T20:06:20.601Z,19.13
2023-03-06T20:08:48.907Z,18.17
2023-03-06T20:11:25.953Z,14.63
2023-03-06T20:13:53.407Z,19.80
2023-03-06T20:16:20.398Z,14.67
2023-03-06T20:18:47.280Z,16.30
2023-03-06T20:21:15.293Z,17.97
2023-03-06T20:23:42.543Z,18.63
2023-03-06T20:26:13.029Z,19.00
2023-03-06T20:28:41.896Z,22.80
2023-03-06T20:31:16.612Z,19.90
2023-03-06T20:33:50.196Z,18.93
2023-03-06T20:36:20.934Z,20.33
2023-03-06T20:38:48.386Z,16.13
2023-03-06T20:41:17.708Z,20.87
2023-03-06T20:43:44.747Z,15.83
2023-03-06T20:46:13.412Z,18.37
2023-03-06T20:48:41.773Z,17.70
2023-03-06T20:51:27.774Z,16.87
2023-03-06T20:53:56.280Z,19.83
2023-03-06T20:56:27.521Z,20.23
2023-03-06T20:58:57.890Z,17.77
2023-03-06T21:01:29.128Z,18.67
2023-03-06T21:03:57.498Z,17.23
2023-03-06T21:06:26.265Z,19.80
2023-03-06T21:08:52.982Z,18.57
2023-03-06T21:11:19.749Z,17.20
2023-03-06T21:13:46.565Z,15.77
2023-03-06T21:16:17.962Z,15.50
2023-03-06T21:18:45.579Z,16.43
2023-03-06T21:21:18.282Z,19.73
2023-03-06T21:23:46.691Z,18.80
2023-03-06T21:26:19.950Z,17.57
2023-03-06T21:28:47.490Z,19.90
2023-03-06T21:31:17.734Z,16.73
2023-03-06T21:33:45.943Z,15.53
2023-03-06T21:36:13.389Z,18.53
2023-03-06T21:38:40.400Z,14.90
2023-03-06T21:41:14.430Z,19.67
2023-03-06T21:43:42.668Z,18.60
2023-03-06T21:46:10.875Z,19.87
2023-03-06T21:48:37.888Z,19.17
2023-03-06T21:51:12.475Z,15.03
2023-03-06T21:53:42.974Z,14.47
2023-03-06T21:56:12.361Z,20.70
2023-03-06T21:58:39.824Z,17.23
2023-03-06T22:01:19.653Z,14.67
2023-03-06T22:03:46.485Z,14.53
2023-03-06T22:06:20.458Z,19.00
2023-03-06T22:08:47.327Z,15.03
2023-03-06T22:11:20.694Z,17.13
2023-03-06T22:13:48.413Z,15.40
2023-03-06T22:16:18.177Z,17.17
2023-03-06T22:18:48.212Z,21.30
2023-03-06T22:21:18.355Z,13.77
2023-03-06T22:23:50.322Z,16.23
2023-03-06T22:26:17.683Z,16.97
2023-03-06T22:28:44.891Z,15.97
2023-03-06T22:31:19.561Z,15.03
2023-03-06T22:33:46.742Z,16.40
2023-03-06T22:36:15.791Z,14.80
2023-03-06T22:38:45.087Z,16.07
2023-03-06T22:41:14.945Z,14.30
2023-03-06T22:43:42.770Z,15.60
2023-03-06T22:46:17.560Z,15.03
2023-03-06T22:48:45.017Z,14.87
2023-03-06T22:51:17.465Z,15.83
2023-03-06T22:53:45.199Z,19.50
2023-03-06T22:56:16.164Z,14.53
2023-03-06T22:58:44.816Z,17.87
2023-03-06T23:01:21.609Z,17.83
2023-03-06T23:03:51.859Z,19.00
2023-03-06T23:06:40.789Z,13.93
2023-03-06T23:09:20.514Z,15.40
2023-03-06T23:11:50.375Z,18.03
2023-03-06T23:14:19.475Z,15.50
2023-03-06T23:16:46.590Z,18.97
2023-03-06T23:19:13.324Z,15.47
2023-03-06T23:21:40.734Z,14.90
2023-03-06T23:24:07.761Z,19.27
2023-03-06T23:26:35.295Z,16.47
2023-03-06T23:29:04.122Z,16.37
2023-03-06T23:31:31.432Z,13.87
2023-03-06T23:34:01.087Z,14.83
2023-03-06T23:36:29.400Z,16.63
2023-03-06T23:38:56.824Z,15.27
2023-03-06T23:41:24.182Z,14.00
2023-03-06T23:43:52.420Z,22.43
2023-03-06T23:46:20.923Z,17.30
2023-03-06T23:48:47.708Z,16.00
2023-03-06T23:51:18.615Z,15.13
2023-03-06T23:53:47.202Z,17.13
2023-03-06T23:56:14.546Z,16.40
2023-03-06T23:58:41.385Z,16.63
